Terminal Aerodrome Forecast
Issued by NWS

Home | Current Version | Previous Version | Text Only | Print | Product List | Glossary On
Versions: 1 2 3 4 5 6 7 8 9 10 11 12 13 14
000
FTUS45 KABQ 111100
TAFAEG
TAF
KAEG 111135Z 1112/1212 VRB06KT P6SM SCT150
     FM112200 VRB15G25KT P6SM VCTS BKN080CB
     FM120100 15011KT P6SM VCSH BKN080
     FM120800 VRB06KT P6SM BKN090=

USA.gov is the U.S. government's official web portal to all federal, state and local government web resources and services.